sensor_id;sensor_type;location;lat;lon;timestamp;pressure;altitude;pressure_sealevel;temperature;humidity
41044;BME280;51680;49.806;18.774;2023-11-18T00:01:47;97399.06;;;6.68;83.87
41044;BME280;51680;49.806;18.774;2023-11-18T00:04:49;97397.41;;;6.67;83.47
41044;BME280;51680;49.806;18.774;2023-11-18T00:07:52;97403.41;;;6.68;83.53
41044;BME280;51680;49.806;18.774;2023-11-18T00:10:54;97399.88;;;6.70;83.87
41044;BME280;51680;49.806;18.774;2023-11-18T00:13:57;97413.78;;;6.68;83.52
41044;BME280;51680;49.806;18.774;2023-11-18T00:17:00;97410.31;;;6.69;83.79
41044;BME280;51680;49.806;18.774;2023-11-18T00:20:04;97411.06;;;6.71;84.20
41044;BME280;51680;49.806;18.774;2023-11-18T00:23:10;97416.13;;;6.74;83.37
41044;BME280;51680;49.806;18.774;2023-11-18T00:26:12;97414.44;;;6.73;83.88
41044;BME280;51680;49.806;18.774;2023-11-18T00:29:18;97416.31;;;6.69;83.47
41044;BME280;51680;49.806;18.774;2023-11-18T00:32:21;97422.34;;;6.70;84.07
41044;BME280;51680;49.806;18.774;2023-11-18T00:35:23;97426.63;;;6.71;83.39
41044;BME280;51680;49.806;18.774;2023-11-18T00:38:25;97424.03;;;6.71;83.19
41044;BME280;51680;49.806;18.774;2023-11-18T00:41:46;97437.78;;;6.73;83.61
41044;BME280;51680;49.806;18.774;2023-11-18T00:44:50;97433.72;;;6.67;83.90
41044;BME280;51680;49.806;18.774;2023-11-18T00:47:52;97439.97;;;6.63;83.48
41044;BME280;51680;49.806;18.774;2023-11-18T00:50:55;97446.97;;;6.61;83.75
41044;BME280;51680;49.806;18.774;2023-11-18T00:53:58;97440.03;;;6.62;84.06
41044;BME280;51680;49.806;18.774;2023-11-18T00:57:01;97438.22;;;6.64;84.61
41044;BME280;51680;49.806;18.774;2023-11-18T01:00:06;97430.34;;;6.65;84.16
41044;BME280;51680;49.806;18.774;2023-11-18T01:03:10;97421.06;;;6.61;84.24
41044;BME280;51680;49.806;18.774;2023-11-18T01:06:12;97432.47;;;6.57;83.89
41044;BME280;51680;49.806;18.774;2023-11-18T01:09:15;97429.25;;;6.52;84.44
41044;BME280;51680;49.806;18.774;2023-11-18T01:12:18;97414.63;;;6.51;84.27
41044;BME280;51680;49.806;18.774;2023-11-18T01:15:22;97423.41;;;6.49;84.51
41044;BME280;51680;49.806;18.774;2023-11-18T01:18:43;97425.44;;;6.42;84.42
41044;BME280;51680;49.806;18.774;2023-11-18T01:21:45;97431.78;;;6.35;84.83
41044;BME280;51680;49.806;18.774;2023-11-18T01:24:47;97425.97;;;6.30;84.97
41044;BME280;51680;49.806;18.774;2023-11-18T01:27:49;97426.91;;;6.29;85.13
41044;BME280;51680;49.806;18.774;2023-11-18T01:30:53;97420.88;;;6.29;85.33
41044;BME280;51680;49.806;18.774;2023-11-18T01:33:55;97421.72;;;6.29;85.06
41044;BME280;51680;49.806;18.774;2023-11-18T01:36:57;97432.22;;;6.26;85.02
41044;BME280;51680;49.806;18.774;2023-11-18T01:39:59;97428.88;;;6.24;84.89
41044;BME280;51680;49.806;18.774;2023-11-18T01:43:08;97420.25;;;6.24;84.86
41044;BME280;51680;49.806;18.774;2023-11-18T01:46:16;97419.50;;;6.22;85.08
41044;BME280;51680;49.806;18.774;2023-11-18T01:49:21;97422.91;;;6.22;84.67
41044;BME280;51680;49.806;18.774;2023-11-18T01:52:24;97425.34;;;6.25;85.21
41044;BME280;51680;49.806;18.774;2023-11-18T01:55:26;97421.84;;;6.26;85.20
41044;BME280;51680;49.806;18.774;2023-11-18T01:58:29;97428.56;;;6.30;84.71
41044;BME280;51680;49.806;18.774;2023-11-18T02:01:52;97432.72;;;6.34;84.91
41044;BME280;51680;49.806;18.774;2023-11-18T02:04:58;97433.63;;;6.33;84.96
41044;BME280;51680;49.806;18.774;2023-11-18T02:08:02;97430.13;;;6.34;85.07
41044;BME280;51680;49.806;18.774;2023-11-18T02:11:15;97436.16;;;6.35;85.32
41044;BME280;51680;49.806;18.774;2023-11-18T02:14:20;97431.97;;;6.32;85.27
41044;BME280;51680;49.806;18.774;2023-11-18T02:17:25;97439.50;;;6.37;84.98
41044;BME280;51680;49.806;18.774;2023-11-18T02:20:28;97437.75;;;6.37;84.91
41044;BME280;51680;49.806;18.774;2023-11-18T02:23:31;97442.84;;;6.39;85.08
41044;BME280;51680;49.806;18.774;2023-11-18T02:26:34;97440.19;;;6.40;85.17
41044;BME280;51680;49.806;18.774;2023-11-18T02:29:37;97447.91;;;6.42;84.24
41044;BME280;51680;49.806;18.774;2023-11-18T02:32:45;97442.53;;;6.46;84.54
41044;BME280;51680;49.806;18.774;2023-11-18T02:35:53;97434.59;;;6.49;84.37
41044;BME280;51680;49.806;18.774;2023-11-18T02:38:58;97442.16;;;6.54;84.98
41044;BME280;51680;49.806;18.774;2023-11-18T02:42:04;97437.97;;;6.51;84.87
41044;BME280;51680;49.806;18.774;2023-11-18T02:45:09;97443.16;;;6.51;84.64
41044;BME280;51680;49.806;18.774;2023-11-18T02:48:13;97438.78;;;6.52;84.23
41044;BME280;51680;49.806;18.774;2023-11-18T02:51:15;97444.81;;;6.52;84.54
41044;BME280;51680;49.806;18.774;2023-11-18T02:54:17;97444.19;;;6.47;85.03
41044;BME280;51680;49.806;18.774;2023-11-18T02:57:23;97448.34;;;6.51;84.96
41044;BME280;51680;49.806;18.774;2023-11-18T03:00:25;97446.78;;;6.47;85.19
41044;BME280;51680;49.806;18.774;2023-11-18T03:03:29;97450.13;;;6.49;84.69
41044;BME280;51680;49.806;18.774;2023-11-18T03:06:31;97453.22;;;6.57;84.65
41044;BME280;51680;49.806;18.774;2023-11-18T03:09:34;97445.38;;;6.59;84.81
41044;BME280;51680;49.806;18.774;2023-11-18T03:12:40;97461.56;;;6.64;84.62
41044;BME280;51680;49.806;18.774;2023-11-18T03:15:42;97463.09;;;6.49;85.22
41044;BME280;51680;49.806;18.774;2023-11-18T03:18:45;97462.81;;;6.55;85.20
41044;BME280;51680;49.806;18.774;2023-11-18T03:21:50;97466.19;;;6.57;84.97
41044;BME280;51680;49.806;18.774;2023-11-18T03:24:53;97465.41;;;6.55;85.12
41044;BME280;51680;49.806;18.774;2023-11-18T03:27:58;97465.13;;;6.61;84.91
41044;BME280;51680;49.806;18.774;2023-11-18T03:31:00;97462.53;;;6.61;84.85
41044;BME280;51680;49.806;18.774;2023-11-18T03:34:02;97466.81;;;6.62;85.35
41044;BME280;51680;49.806;18.774;2023-11-18T03:37:04;97465.81;;;6.65;84.72
41044;BME280;51680;49.806;18.774;2023-11-18T03:40:08;97462.25;;;6.67;84.75
41044;BME280;51680;49.806;18.774;2023-11-18T03:43:11;97466.50;;;6.68;85.32
41044;BME280;51680;49.806;18.774;2023-11-18T03:46:14;97474.34;;;6.67;84.56
41044;BME280;51680;49.806;18.774;2023-11-18T03:49:16;97473.38;;;6.69;84.82
41044;BME280;51680;49.806;18.774;2023-11-18T03:52:18;97466.38;;;6.71;84.94
41044;BME280;51680;49.806;18.774;2023-11-18T03:55:20;97468.19;;;6.69;84.67
41044;BME280;51680;49.806;18.774;2023-11-18T03:58:24;97475.22;;;6.67;85.07
41044;BME280;51680;49.806;18.774;2023-11-18T04:01:26;97475.50;;;6.61;84.71
41044;BME280;51680;49.806;18.774;2023-11-18T04:04:28;97468.91;;;6.54;85.00
41044;BME280;51680;49.806;18.774;2023-11-18T04:07:31;97479.88;;;6.42;85.15
41044;BME280;51680;49.806;18.774;2023-11-18T04:10:33;97470.75;;;6.34;85.27
41044;BME280;51680;49.806;18.774;2023-11-18T04:13:36;97466.69;;;6.28;85.53
41044;BME280;51680;49.806;18.774;2023-11-18T04:16:38;97469.41;;;6.25;85.52
41044;BME280;51680;49.806;18.774;2023-11-18T04:19:40;97471.31;;;6.22;85.20
41044;BME280;51680;49.806;18.774;2023-11-18T04:22:42;97470.63;;;6.18;85.51
41044;BME280;51680;49.806;18.774;2023-11-18T04:25:44;97482.50;;;6.22;85.96
41044;BME280;51680;49.806;18.774;2023-11-18T04:28:48;97475.66;;;6.21;85.14
41044;BME280;51680;49.806;18.774;2023-11-18T04:31:50;97482.66;;;6.19;85.89
41044;BME280;51680;49.806;18.774;2023-11-18T04:34:53;97478.25;;;6.03;86.41
41044;BME280;51680;49.806;18.774;2023-11-18T04:37:55;97480.88;;;6.01;85.65
41044;BME280;51680;49.806;18.774;2023-11-18T04:40:58;97473.19;;;6.00;85.28
41044;BME280;51680;49.806;18.774;2023-11-18T04:44:02;97475.78;;;6.00;85.62
41044;BME280;51680;49.806;18.774;2023-11-18T04:47:05;97480.88;;;6.01;85.68
41044;BME280;51680;49.806;18.774;2023-11-18T04:50:08;97483.28;;;6.06;86.12
41044;BME280;51680;49.806;18.774;2023-11-18T04:53:10;97489.38;;;6.05;86.01
41044;BME280;51680;49.806;18.774;2023-11-18T04:56:12;97493.56;;;6.07;85.88
41044;BME280;51680;49.806;18.774;2023-11-18T04:59:18;97495.28;;;6.08;85.52
41044;BME280;51680;49.806;18.774;2023-11-18T05:02:22;97498.69;;;6.09;85.76
41044;BME280;51680;49.806;18.774;2023-11-18T05:05:24;97497.06;;;6.06;85.80
41044;BME280;51680;49.806;18.774;2023-11-18T05:08:26;97500.56;;;6.05;85.57
41044;BME280;51680;49.806;18.774;2023-11-18T05:11:28;97508.34;;;6.05;85.85
41044;BME280;51680;49.806;18.774;2023-11-18T05:14:31;97510.94;;;6.05;86.23
41044;BME280;51680;49.806;18.774;2023-11-18T05:17:33;97515.81;;;5.93;87.38
41044;BME280;51680;49.806;18.774;2023-11-18T05:20:36;97507.78;;;5.99;86.64
41044;BME280;51680;49.806;18.774;2023-11-18T05:23:38;97505.13;;;6.00;85.77
41044;BME280;51680;49.806;18.774;2023-11-18T05:26:40;97509.25;;;6.04;86.12
41044;BME280;51680;49.806;18.774;2023-11-18T05:29:43;97507.44;;;6.06;86.31
41044;BME280;51680;49.806;18.774;2023-11-18T05:32:49;97513.47;;;6.07;85.60
41044;BME280;51680;49.806;18.774;2023-11-18T05:35:51;97510.81;;;6.08;86.17
41044;BME280;51680;49.806;18.774;2023-11-18T05:38:54;97516.69;;;6.12;86.03
41044;BME280;51680;49.806;18.774;2023-11-18T05:41:56;97520.06;;;6.14;85.93
41044;BME280;51680;49.806;18.774;2023-11-18T05:45:00;97521.88;;;6.12;86.21
41044;BME280;51680;49.806;18.774;2023-11-18T05:48:02;97521.09;;;6.10;86.64
41044;BME280;51680;49.806;18.774;2023-11-18T05:51:05;97522.00;;;6.09;86.69
41044;BME280;51680;49.806;18.774;2023-11-18T05:54:07;97516.81;;;6.09;86.44
41044;BME280;51680;49.806;18.774;2023-11-18T05:57:09;97522.84;;;6.09;86.45
41044;BME280;51680;49.806;18.774;2023-11-18T06:00:13;97514.03;;;6.13;86.21
41044;BME280;51680;49.806;18.774;2023-11-18T06:03:18;97508.88;;;6.13;86.73
41044;BME280;51680;49.806;18.774;2023-11-18T06:06:20;97522.06;;;6.07;86.70
41044;BME280;51680;49.806;18.774;2023-11-18T06:09:23;97519.06;;;5.98;87.01
41044;BME280;51680;49.806;18.774;2023-11-18T06:12:26;97529.53;;;5.95;86.35
41044;BME280;51680;49.806;18.774;2023-11-18T06:15:29;97527.09;;;5.92;86.53
41044;BME280;51680;49.806;18.774;2023-11-18T06:18:31;97537.59;;;5.89;86.66
41044;BME280;51680;49.806;18.774;2023-11-18T06:21:33;97535.00;;;5.89;86.64
41044;BME280;51680;49.806;18.774;2023-11-18T06:24:35;97548.84;;;5.88;86.73
41044;BME280;51680;49.806;18.774;2023-11-18T06:27:40;97557.53;;;5.87;86.76
41044;BME280;51680;49.806;18.774;2023-11-18T06:30:43;97556.69;;;5.86;86.96
41044;BME280;51680;49.806;18.774;2023-11-18T06:33:46;97555.13;;;5.82;87.07
41044;BME280;51680;49.806;18.774;2023-11-18T06:36:49;97563.69;;;5.84;86.91
41044;BME280;51680;49.806;18.774;2023-11-18T06:39:51;97572.13;;;5.89;87.34
41044;BME280;51680;49.806;18.774;2023-11-18T06:42:53;97582.47;;;5.89;87.33
41044;BME280;51680;49.806;18.774;2023-11-18T06:46:03;97583.13;;;5.94;87.25
41044;BME280;51680;49.806;18.774;2023-11-18T06:49:06;97600.28;;;5.97;87.13
41044;BME280;51680;49.806;18.774;2023-11-18T06:52:11;97609.53;;;6.02;87.54
41044;BME280;51680;49.806;18.774;2023-11-18T06:55:14;97598.34;;;6.02;86.99
41044;BME280;51680;49.806;18.774;2023-11-18T06:58:16;97594.25;;;5.96;86.83
41044;BME280;51680;49.806;18.774;2023-11-18T07:01:20;97599.47;;;5.95;86.53
41044;BME280;51680;49.806;18.774;2023-11-18T07:04:22;97607.41;;;5.92;87.10
41044;BME280;51680;49.806;18.774;2023-11-18T07:07:24;97611.72;;;5.91;87.25
41044;BME280;51680;49.806;18.774;2023-11-18T07:10:26;97612.63;;;5.90;87.28
41044;BME280;51680;49.806;18.774;2023-11-18T07:13:28;97620.47;;;5.89;86.72
41044;BME280;51680;49.806;18.774;2023-11-18T07:16:31;97618.84;;;5.86;86.86
41044;BME280;51680;49.806;18.774;2023-11-18T07:19:33;97620.53;;;5.87;86.85
41044;BME280;51680;49.806;18.774;2023-11-18T07:22:35;97625.59;;;5.90;86.64
41044;BME280;51680;49.806;18.774;2023-11-18T07:25:37;97625.72;;;5.87;86.94
41044;BME280;51680;49.806;18.774;2023-11-18T07:28:39;97629.88;;;5.91;86.85
41044;BME280;51680;49.806;18.774;2023-11-18T07:31:43;97632.41;;;5.93;86.72
41044;BME280;51680;49.806;18.774;2023-11-18T07:34:46;97633.03;;;5.98;86.59
41044;BME280;51680;49.806;18.774;2023-11-18T07:37:48;97638.16;;;5.99;86.99
41044;BME280;51680;49.806;18.774;2023-11-18T07:40:50;97640.44;;;6.07;86.58
41044;BME280;51680;49.806;18.774;2023-11-18T07:43:58;97640.28;;;6.10;86.64
41044;BME280;51680;49.806;18.774;2023-11-18T07:47:02;97646.31;;;6.10;86.90
41044;BME280;51680;49.806;18.774;2023-11-18T07:50:06;97654.09;;;6.10;86.85
41044;BME280;51680;49.806;18.774;2023-11-18T07:53:08;97651.38;;;6.13;86.64
41044;BME280;51680;49.806;18.774;2023-11-18T07:56:10;97649.34;;;6.20;86.60
41044;BME280;51680;49.806;18.774;2023-11-18T07:59:13;97663.09;;;6.22;86.29
41044;BME280;51680;49.806;18.774;2023-11-18T08:02:36;97646.56;;;6.24;86.59
41044;BME280;51680;49.806;18.774;2023-11-18T08:05:39;97652.63;;;6.25;86.35
41044;BME280;51680;49.806;18.774;2023-11-18T08:08:41;97654.34;;;6.24;85.93
41044;BME280;51680;49.806;18.774;2023-11-18T08:11:43;97659.28;;;6.30;86.66
41044;BME280;51680;49.806;18.774;2023-11-18T08:15:05;97663.47;;;6.33;86.16
41044;BME280;51680;49.806;18.774;2023-11-18T08:18:11;97668.59;;;6.34;85.94
41044;BME280;51680;49.806;18.774;2023-11-18T08:21:13;97672.13;;;6.33;86.00
41044;BME280;51680;49.806;18.774;2023-11-18T08:24:15;97676.50;;;6.31;86.22
41044;BME280;51680;49.806;18.774;2023-11-18T08:27:36;97677.47;;;6.29;85.70
41044;BME280;51680;49.806;18.774;2023-11-18T08:30:38;97673.19;;;6.28;85.49
41044;BME280;51680;49.806;18.774;2023-11-18T08:33:42;97675.53;;;6.14;84.92
41044;BME280;51680;49.806;18.774;2023-11-18T08:36:47;97677.75;;;6.03;85.34
41044;BME280;51680;49.806;18.774;2023-11-18T08:39:49;97683.03;;;6.00;85.36
41044;BME280;51680;49.806;18.774;2023-11-18T08:42:51;97683.78;;;6.03;85.00
41044;BME280;51680;49.806;18.774;2023-11-18T08:45:56;97679.31;;;6.07;85.68
41044;BME280;51680;49.806;18.774;2023-11-18T08:48:59;97687.00;;;6.08;85.33
41044;BME280;51680;49.806;18.774;2023-11-18T08:52:29;97692.84;;;6.13;85.68
41044;BME280;51680;49.806;18.774;2023-11-18T08:55:32;97700.22;;;6.22;85.68
41044;BME280;51680;49.806;18.774;2023-11-18T08:58:41;97692.16;;;6.30;85.74
41044;BME280;51680;49.806;18.774;2023-11-18T09:01:45;97705.00;;;6.31;84.92
41044;BME280;51680;49.806;18.774;2023-11-18T09:04:51;97702.50;;;6.30;84.85
41044;BME280;51680;49.806;18.774;2023-11-18T09:07:55;97703.41;;;6.29;84.97
41044;BME280;51680;49.806;18.774;2023-11-18T09:10:58;97707.50;;;6.34;85.68
41044;BME280;51680;49.806;18.774;2023-11-18T09:14:00;97706.47;;;6.38;85.27
41044;BME280;51680;49.806;18.774;2023-11-18T09:17:04;97709.81;;;6.40;85.79
41044;BME280;51680;49.806;18.774;2023-11-18T09:20:09;97709.69;;;6.43;85.49
41044;BME280;51680;49.806;18.774;2023-11-18T09:23:11;97718.50;;;6.39;84.86
41044;BME280;51680;49.806;18.774;2023-11-18T09:26:14;97717.59;;;6.40;85.14
41044;BME280;51680;49.806;18.774;2023-11-18T09:29:17;97716.50;;;6.46;85.31
41044;BME280;51680;49.806;18.774;2023-11-18T09:32:23;97719.94;;;6.46;85.47
41044;BME280;51680;49.806;18.774;2023-11-18T09:35:27;97715.53;;;6.48;85.25
41044;BME280;51680;49.806;18.774;2023-11-18T09:38:32;97719.94;;;6.46;84.92
41044;BME280;51680;49.806;18.774;2023-11-18T09:41:36;97721.94;;;6.40;84.76
41044;BME280;51680;49.806;18.774;2023-11-18T09:44:38;97718.06;;;6.30;83.99
41044;BME280;51680;49.806;18.774;2023-11-18T09:47:59;97713.38;;;6.18;84.80
41044;BME280;51680;49.806;18.774;2023-11-18T09:51:05;97717.25;;;6.08;84.74
41044;BME280;51680;49.806;18.774;2023-11-18T09:54:14;97722.22;;;6.12;84.95
41044;BME280;51680;49.806;18.774;2023-11-18T09:57:24;97725.69;;;6.13;85.21
41044;BME280;51680;49.806;18.774;2023-11-18T10:00:30;97727.31;;;6.15;85.42
41044;BME280;51680;49.806;18.774;2023-11-18T10:03:34;97726.38;;;6.16;85.59
41044;BME280;51680;49.806;18.774;2023-11-18T10:06:38;97720.44;;;6.14;85.64
41044;BME280;51680;49.806;18.774;2023-11-18T10:09:40;97722.81;;;5.99;86.87
41044;BME280;51680;49.806;18.774;2023-11-18T10:12:44;97730.63;;;5.97;85.93
41044;BME280;51680;49.806;18.774;2023-11-18T10:15:52;97725.34;;;6.00;85.43
41044;BME280;51680;49.806;18.774;2023-11-18T10:18:54;97728.69;;;6.02;85.47
41044;BME280;51680;49.806;18.774;2023-11-18T10:22:03;97740.03;;;6.00;85.93
41044;BME280;51680;49.806;18.774;2023-11-18T10:25:05;97749.44;;;6.02;85.50
41044;BME280;51680;49.806;18.774;2023-11-18T10:28:07;97756.19;;;6.06;85.54
41044;BME280;51680;49.806;18.774;2023-11-18T10:31:18;97752.69;;;6.07;85.62
41044;BME280;51680;49.806;18.774;2023-11-18T10:34:21;97744.84;;;6.09;85.93
41044;BME280;51680;49.806;18.774;2023-11-18T10:37:24;97749.22;;;6.08;86.07
41044;BME280;51680;49.806;18.774;2023-11-18T10:40:28;97750.03;;;6.09;86.37
41044;BME280;51680;49.806;18.774;2023-11-18T10:43:30;97752.56;;;6.10;85.91
41044;BME280;51680;49.806;18.774;2023-11-18T10:46:36;97757.84;;;6.07;85.53
41044;BME280;51680;49.806;18.774;2023-11-18T10:49:39;97775.22;;;6.05;86.04
41044;BME280;51680;49.806;18.774;2023-11-18T10:52:45;97782.41;;;5.99;85.79
41044;BME280;51680;49.806;18.774;2023-11-18T10:55:48;97779.44;;;5.86;85.26
41044;BME280;51680;49.806;18.774;2023-11-18T10:58:51;97786.22;;;5.67;85.24
41044;BME280;51680;49.806;18.774;2023-11-18T11:01:53;97780.59;;;5.56;84.99
41044;BME280;51680;49.806;18.774;2023-11-18T11:04:58;97792.97;;;5.48;85.13
41044;BME280;51680;49.806;18.774;2023-11-18T11:08:02;97787.91;;;5.45;85.00
41044;BME280;51680;49.806;18.774;2023-11-18T11:11:06;97793.09;;;5.45;85.39
41044;BME280;51680;49.806;18.774;2023-11-18T11:14:12;97796.34;;;5.50;85.80
41044;BME280;51680;49.806;18.774;2023-11-18T11:17:17;97795.34;;;5.54;85.48
41044;BME280;51680;49.806;18.774;2023-11-18T11:20:32;97797.16;;;5.52;86.10
41044;BME280;51680;49.806;18.774;2023-11-18T11:23:50;97798.72;;;5.56;86.00
41044;BME280;51680;49.806;18.774;2023-11-18T11:27:05;97796.25;;;5.53;86.01
41044;BME280;51680;49.806;18.774;2023-11-18T11:30:22;97798.94;;;5.50;86.37
41044;BME280;51680;49.806;18.774;2023-11-18T11:33:31;97806.03;;;5.45;86.45
41044;BME280;51680;49.806;18.774;2023-11-18T11:36:42;97818.19;;;5.43;86.65
41044;BME280;51680;49.806;18.774;2023-11-18T11:39:50;97835.38;;;5.46;86.97
41044;BME280;51680;49.806;18.774;2023-11-18T11:42:54;97833.50;;;5.49;86.33
41044;BME280;51680;49.806;18.774;2023-11-18T11:45:56;97839.59;;;5.48;86.24
41044;BME280;51680;49.806;18.774;2023-11-18T11:49:00;97844.75;;;5.48;86.82
41044;BME280;51680;49.806;18.774;2023-11-18T11:52:13;97850.66;;;5.52;86.20
41044;BME280;51680;49.806;18.774;2023-11-18T11:55:26;97848.88;;;5.54;86.56
41044;BME280;51680;49.806;18.774;2023-11-18T11:58:31;97852.28;;;5.54;86.99
41044;BME280;51680;49.806;18.774;2023-11-18T12:01:36;97858.28;;;5.56;86.33
41044;BME280;51680;49.806;18.774;2023-11-18T12:04:38;97851.47;;;5.54;86.04
41044;BME280;51680;49.806;18.774;2023-11-18T12:07:42;97862.66;;;5.54;86.12
41044;BME280;51680;49.806;18.774;2023-11-18T12:10:55;97861.88;;;5.52;85.46
41044;BME280;51680;49.806;18.774;2023-11-18T12:14:02;97860.19;;;5.51;85.53
41044;BME280;51680;49.806;18.774;2023-11-18T12:18:10;97866.09;;;5.55;85.81
41044;BME280;51680;49.806;18.774;2023-11-18T12:28:40;97862.03;;;5.48;85.02
41044;BME280;51680;49.806;18.774;2023-11-18T12:31:46;97871.69;;;5.43;84.93
41044;BME280;51680;49.806;18.774;2023-11-18T12:34:50;97883.91;;;5.39;85.02
41044;BME280;51680;49.806;18.774;2023-11-18T12:38:21;97882.06;;;5.43;84.70
41044;BME280;51680;49.806;18.774;2023-11-18T12:41:34;97898.66;;;5.37;84.86
41044;BME280;51680;49.806;18.774;2023-11-18T12:45:03;97895.94;;;5.40;85.39
41044;BME280;51680;49.806;18.774;2023-11-18T12:48:15;97902.03;;;5.39;84.93
41044;BME280;51680;49.806;18.774;2023-11-18T12:51:17;97909.03;;;5.37;84.29
41044;BME280;51680;49.806;18.774;2023-11-18T12:54:20;97914.75;;;5.22;85.25
41044;BME280;51680;49.806;18.774;2023-11-18T12:57:26;97921.38;;;5.29;85.32
41044;BME280;51680;49.806;18.774;2023-11-18T13:00:33;97924.75;;;5.31;84.98
41044;BME280;51680;49.806;18.774;2023-11-18T13:03:36;97920.47;;;5.30;84.38
41044;BME280;51680;49.806;18.774;2023-11-18T13:06:38;97928.25;;;5.30;84.27
41044;BME280;51680;49.806;18.774;2023-11-18T13:09:43;97927.28;;;5.33;84.79
41044;BME280;51680;49.806;18.774;2023-11-18T13:12:46;97940.09;;;5.37;84.55
41044;BME280;51680;49.806;18.774;2023-11-18T13:15:51;97931.41;;;5.38;84.11
41044;BME280;51680;49.806;18.774;2023-11-18T13:18:53;97940.19;;;5.34;84.27
41044;BME280;51680;49.806;18.774;2023-11-18T13:21:57;97941.13;;;5.32;83.88
41044;BME280;51680;49.806;18.774;2023-11-18T13:25:00;97954.34;;;5.24;83.91
41044;BME280;51680;49.806;18.774;2023-11-18T13:28:05;97962.88;;;5.26;84.42
41044;BME280;51680;49.806;18.774;2023-11-18T13:31:12;97971.47;;;5.28;84.64
41044;BME280;51680;49.806;18.774;2023-11-18T13:34:17;97968.75;;;5.31;84.39
41044;BME280;51680;49.806;18.774;2023-11-18T13:37:19;97966.97;;;5.33;84.29
41044;BME280;51680;49.806;18.774;2023-11-18T13:40:22;97971.28;;;5.33;83.58
41044;BME280;51680;49.806;18.774;2023-11-18T13:43:25;97966.78;;;5.38;83.89
41044;BME280;51680;49.806;18.774;2023-11-18T13:46:28;97968.13;;;5.49;83.73
41044;BME280;51680;49.806;18.774;2023-11-18T13:49:30;97970.84;;;5.46;83.05
41044;BME280;51680;49.806;18.774;2023-11-18T13:52:33;97974.09;;;5.51;83.64
41044;BME280;51680;49.806;18.774;2023-11-18T13:55:35;97972.19;;;5.56;83.68
41044;BME280;51680;49.806;18.774;2023-11-18T13:58:39;97980.66;;;5.61;83.74
41044;BME280;51680;49.806;18.774;2023-11-18T14:01:43;97982.25;;;5.65;83.66
41044;BME280;51680;49.806;18.774;2023-11-18T14:04:45;97983.88;;;5.68;83.25
41044;BME280;51680;49.806;18.774;2023-11-18T14:07:47;97987.19;;;5.71;82.91
41044;BME280;51680;49.806;18.774;2023-11-18T14:10:49;97984.47;;;5.74;82.97
41044;BME280;51680;49.806;18.774;2023-11-18T14:13:52;97991.38;;;5.75;82.64
41044;BME280;51680;49.806;18.774;2023-11-18T14:16:55;97987.94;;;5.75;83.12
41044;BME280;51680;49.806;18.774;2023-11-18T14:19:58;97987.94;;;5.75;82.71
41044;BME280;51680;49.806;18.774;2023-11-18T14:23:00;97990.47;;;5.76;82.45
41044;BME280;51680;49.806;18.774;2023-11-18T14:26:04;97994.69;;;5.79;83.12
41044;BME280;51680;49.806;18.774;2023-11-18T14:29:08;97989.56;;;5.77;83.18
41044;BME280;51680;49.806;18.774;2023-11-18T14:32:11;97990.47;;;5.76;82.46
41044;BME280;51680;49.806;18.774;2023-11-18T14:35:14;97984.56;;;5.73;83.04
41044;BME280;51680;49.806;18.774;2023-11-18T14:38:17;97987.28;;;5.68;82.41
41044;BME280;51680;49.806;18.774;2023-11-18T14:41:20;97995.19;;;5.65;82.35
41044;BME280;51680;49.806;18.774;2023-11-18T14:44:26;98002.09;;;5.65;82.70
41044;BME280;51680;49.806;18.774;2023-11-18T14:47:31;98015.06;;;5.65;82.64
41044;BME280;51680;49.806;18.774;2023-11-18T14:50:33;98013.31;;;5.65;82.34
41044;BME280;51680;49.806;18.774;2023-11-18T14:53:35;98015.00;;;5.66;82.64
41044;BME280;51680;49.806;18.774;2023-11-18T14:56:38;98012.41;;;5.66;82.37
41044;BME280;51680;49.806;18.774;2023-11-18T14:59:40;98012.50;;;5.63;82.78
41044;BME280;51680;49.806;18.774;2023-11-18T15:02:43;98012.50;;;5.63;82.61
41044;BME280;51680;49.806;18.774;2023-11-18T15:05:46;98017.63;;;5.65;82.74
41044;BME280;51680;49.806;18.774;2023-11-18T15:08:48;98017.81;;;5.60;82.75
41044;BME280;51680;49.806;18.774;2023-11-18T15:11:50;98021.34;;;5.58;83.14
41044;BME280;51680;49.806;18.774;2023-11-18T15:14:54;98015.53;;;5.51;82.67
41044;BME280;51680;49.806;18.774;2023-11-18T15:17:58;98013.28;;;5.41;82.96
41044;BME280;51680;49.806;18.774;2023-11-18T15:21:00;98015.34;;;5.31;82.89
41044;BME280;51680;49.806;18.774;2023-11-18T15:24:02;98018.88;;;5.29;83.00
41044;BME280;51680;49.806;18.774;2023-11-18T15:27:04;98021.63;;;5.24;82.57
41044;BME280;51680;49.806;18.774;2023-11-18T15:30:07;98025.19;;;5.20;82.44
41044;BME280;51680;49.806;18.774;2023-11-18T15:33:13;98024.41;;;5.18;82.45
41044;BME280;51680;49.806;18.774;2023-11-18T15:36:15;98029.69;;;5.15;82.31
41044;BME280;51680;49.806;18.774;2023-11-18T15:39:17;98034.81;;;5.17;82.30
41044;BME280;51680;49.806;18.774;2023-11-18T15:42:20;98040.84;;;5.17;82.18
41044;BME280;51680;49.806;18.774;2023-11-18T15:45:23;98037.22;;;5.21;82.37
41044;BME280;51680;49.806;18.774;2023-11-18T15:48:27;98051.06;;;5.20;81.78
41044;BME280;51680;49.806;18.774;2023-11-18T15:51:29;98051.06;;;5.20;82.32
41044;BME280;51680;49.806;18.774;2023-11-18T15:54:50;98045.91;;;5.20;81.96
41044;BME280;51680;49.806;18.774;2023-11-18T15:57:52;98043.97;;;5.27;82.22
41044;BME280;51680;49.806;18.774;2023-11-18T16:00:54;98032.72;;;5.28;82.08
41044;BME280;51680;49.806;18.774;2023-11-18T16:03:58;98040.50;;;5.26;81.48
41044;BME280;51680;49.806;18.774;2023-11-18T16:07:00;98036.25;;;5.25;81.44
41044;BME280;51680;49.806;18.774;2023-11-18T16:10:03;98047.41;;;5.27;82.24
41044;BME280;51680;49.806;18.774;2023-11-18T16:13:05;98046.72;;;5.22;81.46
41044;BME280;51680;49.806;18.774;2023-11-18T16:16:07;98040.50;;;5.26;82.15
41044;BME280;51680;49.806;18.774;2023-11-18T16:19:11;98050.03;;;5.26;82.28
41044;BME280;51680;49.806;18.774;2023-11-18T16:22:13;98041.59;;;5.21;82.00
41044;BME280;51680;49.806;18.774;2023-11-18T16:25:16;98038.34;;;5.14;81.10